createdAt,value
2023-02-18T00:01:30.616Z,6.50
2023-02-18T00:03:59.875Z,6.50
2023-02-18T00:06:30.488Z,6.60
2023-02-18T00:09:01.967Z,6.50
2023-02-18T00:11:32.071Z,6.50
2023-02-18T00:14:01.905Z,6.50
2023-02-18T00:16:31.453Z,6.40
2023-02-18T00:19:04.921Z,6.40
2023-02-18T00:21:36.778Z,6.40
2023-02-18T00:24:06.278Z,6.40
2023-02-18T00:26:35.370Z,6.30
2023-02-18T00:29:04.037Z,6.40
2023-02-18T00:31:35.652Z,6.40
2023-02-18T00:34:05.143Z,6.40
2023-02-18T00:36:33.548Z,6.30
2023-02-18T00:39:04.019Z,6.30
2023-02-18T00:41:33.464Z,6.30
2023-02-18T00:44:01.544Z,6.20
2023-02-18T00:46:30.760Z,6.20
2023-02-18T00:48:58.260Z,6.20
2023-02-18T00:51:26.096Z,6.10
2023-02-18T00:53:53.751Z,6.00
2023-02-18T00:56:21.931Z,6.00
2023-02-18T00:58:50.312Z,6.00
2023-02-18T01:01:18.522Z,5.90
2023-02-18T01:03:46.536Z,5.90
2023-02-18T01:06:15.009Z,5.90
2023-02-18T01:08:43.122Z,5.90
2023-02-18T01:11:11.926Z,5.80
2023-02-18T01:13:40.064Z,5.90
2023-02-18T01:16:08.765Z,5.80
2023-02-18T01:18:37.258Z,5.90
2023-02-18T01:21:08.923Z,5.90
2023-02-18T01:23:39.009Z,5.90
2023-02-18T01:26:08.539Z,5.90
2023-02-18T01:28:39.369Z,5.80
2023-02-18T01:31:11.268Z,5.80
2023-02-18T01:33:39.251Z,5.80
2023-02-18T01:36:07.789Z,5.90
2023-02-18T01:38:35.934Z,5.70
2023-02-18T01:41:03.897Z,5.70
2023-02-18T01:43:33.198Z,5.70
2023-02-18T01:46:07.857Z,5.60
2023-02-18T01:48:53.521Z,5.50
2023-02-18T01:51:46.928Z,5.60
2023-02-18T01:54:27.069Z,5.60
2023-02-18T01:57:00.311Z,5.40
2023-02-18T01:59:50.091Z,5.40
2023-02-18T02:02:23.145Z,5.40
2023-02-18T02:04:51.250Z,5.40
2023-02-18T02:07:21.170Z,5.40
2023-02-18T02:09:50.949Z,5.40
2023-02-18T02:12:42.772Z,5.40
2023-02-18T02:15:28.390Z,5.40
2023-02-18T02:18:23.018Z,5.40
2023-02-18T02:21:09.384Z,5.50
2023-02-18T02:23:46.115Z,5.50
2023-02-18T02:26:32.046Z,5.40
2023-02-18T02:29:34.845Z,5.40
2023-02-18T02:32:26.489Z,5.30
2023-02-18T02:35:09.647Z,5.20
2023-02-18T02:38:02.085Z,5.30
2023-02-18T02:40:57.398Z,5.20
2023-02-18T02:43:42.056Z,5.30
2023-02-18T02:46:36.951Z,5.40
2023-02-18T02:49:19.923Z,5.30
2023-02-18T02:52:05.571Z,5.40
2023-02-18T02:54:33.305Z,5.30
2023-02-18T02:57:19.150Z,5.40
2023-02-18T03:00:05.826Z,5.20
2023-02-18T03:02:51.983Z,5.40
2023-02-18T03:05:31.494Z,5.10
2023-02-18T03:08:13.585Z,5.20
2023-02-18T03:11:04.157Z,5.20
2023-02-18T03:13:44.032Z,5.20
2023-02-18T03:16:51.462Z,5.10
2023-02-18T03:19:41.592Z,5.10
2023-02-18T03:22:11.856Z,5.10
2023-02-18T03:24:47.104Z,5.10
2023-02-18T03:27:18.288Z,4.90
2023-02-18T03:29:52.772Z,4.90
2023-02-18T03:32:22.626Z,4.90
2023-02-18T03:34:55.712Z,5.00
2023-02-18T03:37:24.221Z,5.00
2023-02-18T03:39:56.580Z,4.90
2023-02-18T03:42:28.594Z,5.00
2023-02-18T03:44:56.711Z,4.90
2023-02-18T03:47:25.316Z,4.90
2023-02-18T03:49:52.844Z,5.00
2023-02-18T03:52:20.450Z,4.90
2023-02-18T03:54:47.995Z,5.00
2023-02-18T03:57:15.488Z,4.90
2023-02-18T03:59:43.060Z,5.10
2023-02-18T04:02:10.484Z,4.80
2023-02-18T04:04:38.035Z,4.80
2023-02-18T04:07:05.722Z,5.10
2023-02-18T04:09:33.235Z,5.10
2023-02-18T04:12:00.731Z,5.10
2023-02-18T04:14:28.281Z,5.00
2023-02-18T04:16:55.840Z,5.20
2023-02-18T04:19:23.396Z,5.20
2023-02-18T04:21:50.840Z,5.20
2023-02-18T04:24:18.409Z,5.00
2023-02-18T04:26:45.945Z,4.90
2023-02-18T04:29:13.404Z,4.90
2023-02-18T04:31:40.915Z,4.80
2023-02-18T04:34:09.630Z,4.90
2023-02-18T04:36:37.081Z,4.80
2023-02-18T04:39:04.699Z,4.80
2023-02-18T04:41:32.164Z,4.80
2023-02-18T04:44:00.651Z,4.90
2023-02-18T04:46:28.205Z,4.90
2023-02-18T04:48:55.749Z,4.90
2023-02-18T04:51:23.308Z,4.80
2023-02-18T04:53:50.857Z,4.80
2023-02-18T04:56:18.364Z,4.90
2023-02-18T04:58:45.955Z,4.90
2023-02-18T05:01:13.516Z,4.90
2023-02-18T05:03:41.044Z,4.90
2023-02-18T05:06:08.791Z,5.00
2023-02-18T05:08:36.413Z,5.00
2023-02-18T05:11:08.326Z,4.90
2023-02-18T05:13:36.236Z,4.80
2023-02-18T05:16:03.889Z,4.70
2023-02-18T05:18:31.429Z,4.90
2023-02-18T05:20:59.075Z,4.90
2023-02-18T05:23:26.682Z,4.90
2023-02-18T05:25:55.182Z,4.90
2023-02-18T05:28:23.141Z,4.70
2023-02-18T05:30:50.635Z,4.70
2023-02-18T05:33:18.177Z,4.80
2023-02-18T05:35:46.641Z,4.70
2023-02-18T05:38:14.071Z,4.80
2023-02-18T05:40:41.570Z,4.60
2023-02-18T05:43:09.250Z,4.60
2023-02-18T05:45:37.039Z,4.60
2023-02-18T05:48:07.164Z,4.70
2023-02-18T05:50:34.786Z,4.70
2023-02-18T05:53:02.286Z,4.70
2023-02-18T05:55:29.861Z,4.60
2023-02-18T05:57:57.303Z,4.70
2023-02-18T06:00:25.559Z,4.70
2023-02-18T06:02:53.072Z,4.50
2023-02-18T06:05:20.616Z,4.50
2023-02-18T06:07:48.103Z,4.40
2023-02-18T06:10:15.632Z,4.50
2023-02-18T06:12:43.091Z,4.40
2023-02-18T06:15:10.897Z,4.40
2023-02-18T06:17:38.376Z,4.20
2023-02-18T06:20:06.580Z,4.20
2023-02-18T06:22:34.024Z,4.20
2023-02-18T06:25:01.510Z,4.20
2023-02-18T06:27:29.031Z,4.20
2023-02-18T06:29:56.495Z,4.10
2023-02-18T06:32:24.081Z,4.20
2023-02-18T06:34:51.670Z,4.00
2023-02-18T06:37:20.613Z,4.10
2023-02-18T06:39:48.164Z,4.00
2023-02-18T06:42:15.732Z,4.00
2023-02-18T06:44:43.283Z,3.90
2023-02-18T06:47:10.751Z,3.70
2023-02-18T06:49:39.112Z,3.80
2023-02-18T06:52:06.750Z,3.80
2023-02-18T06:54:34.641Z,3.80
2023-02-18T06:57:02.264Z,3.70
2023-02-18T06:59:29.757Z,3.70
2023-02-18T07:01:57.256Z,3.50
2023-02-18T07:04:24.736Z,3.50
2023-02-18T07:06:52.196Z,3.50
2023-02-18T07:09:19.679Z,3.40
2023-02-18T07:11:47.135Z,3.40
2023-02-18T07:14:14.660Z,3.20
2023-02-18T07:16:42.285Z,3.30
2023-02-18T07:19:09.852Z,3.30
2023-02-18T07:21:37.360Z,3.30
2023-02-18T07:24:05.259Z,3.40
2023-02-18T07:26:32.781Z,3.30
2023-02-18T07:29:00.370Z,3.40
2023-02-18T07:31:27.996Z,3.40
2023-02-18T07:33:55.519Z,3.30
2023-02-18T07:36:23.034Z,3.40
2023-02-18T07:38:50.561Z,3.30
2023-02-18T07:41:21.176Z,3.40
2023-02-18T07:43:49.023Z,3.30
2023-02-18T07:46:16.939Z,3.20
2023-02-18T07:48:44.498Z,3.20
2023-02-18T07:51:13.374Z,3.20
2023-02-18T07:53:40.884Z,3.20
2023-02-18T07:56:08.737Z,3.40
2023-02-18T07:58:38.758Z,3.40
2023-02-18T08:01:08.020Z,3.30
2023-02-18T08:03:35.918Z,3.30
2023-02-18T08:06:04.778Z,3.50
2023-02-18T08:08:34.608Z,3.50
2023-02-18T08:11:13.386Z,3.50
2023-02-18T08:13:47.187Z,3.50
2023-02-18T08:16:15.861Z,3.50
2023-02-18T08:18:43.539Z,3.50
2023-02-18T08:21:11.073Z,3.60
2023-02-18T08:23:38.587Z,3.50
2023-02-18T08:26:06.860Z,3.50
2023-02-18T08:28:44.130Z,3.70
2023-02-18T08:31:30.658Z,3.60
2023-02-18T08:34:00.506Z,3.60
2023-02-18T08:36:28.711Z,3.70
2023-02-18T08:38:57.044Z,3.80
2023-02-18T08:41:24.652Z,3.80
2023-02-18T08:43:54.531Z,3.70
2023-02-18T08:46:25.247Z,3.80
2023-02-18T08:49:01.166Z,3.80
2023-02-18T08:51:28.648Z,3.80
2023-02-18T08:53:58.705Z,3.70
2023-02-18T08:56:26.444Z,3.70
2023-02-18T08:58:53.960Z,3.90
2023-02-18T09:01:21.529Z,3.80
2023-02-18T09:03:49.271Z,3.70
2023-02-18T09:06:16.870Z,3.60
2023-02-18T09:08:44.366Z,3.50
2023-02-18T09:11:12.273Z,3.40
2023-02-18T09:13:40.391Z,3.40
2023-02-18T09:16:12.910Z,3.50
2023-02-18T09:18:40.698Z,3.50
2023-02-18T09:21:09.883Z,3.50
2023-02-18T09:23:37.749Z,3.50
2023-02-18T09:26:07.276Z,3.60
2023-02-18T09:28:35.687Z,3.60
2023-02-18T09:31:12.271Z,3.70
2023-02-18T09:33:44.205Z,3.70
2023-02-18T09:36:13.515Z,3.70
2023-02-18T09:38:40.992Z,3.90
2023-02-18T09:41:32.387Z,3.90
2023-02-18T09:44:24.199Z,4.00
2023-02-18T09:46:59.479Z,3.90
2023-02-18T09:49:30.273Z,4.00
2023-02-18T09:52:03.188Z,4.10
2023-02-18T09:54:30.704Z,4.00
2023-02-18T09:56:59.726Z,4.10
2023-02-18T09:59:28.034Z,4.30
2023-02-18T10:01:57.167Z,4.30
2023-02-18T10:04:41.702Z,4.20
2023-02-18T10:07:35.908Z,4.30
2023-02-18T10:10:35.148Z,4.30
2023-02-18T10:13:03.419Z,4.50
2023-02-18T10:15:32.542Z,4.60
2023-02-18T10:18:02.011Z,4.50
2023-02-18T10:20:31.005Z,4.60
2023-02-18T10:23:01.854Z,4.60
2023-02-18T10:25:29.771Z,4.70
2023-02-18T10:28:00.696Z,4.70
2023-02-18T10:30:33.787Z,4.80
2023-02-18T10:33:27.045Z,4.70
2023-02-18T10:36:02.779Z,4.60
2023-02-18T10:39:20.675Z,4.70
2023-02-18T10:42:01.174Z,4.80
2023-02-18T10:44:53.681Z,4.80
2023-02-18T10:47:28.427Z,4.80
2023-02-18T10:50:18.779Z,4.90
2023-02-18T10:52:49.485Z,5.00
2023-02-18T10:55:18.962Z,5.10
2023-02-18T10:57:52.728Z,5.00
2023-02-18T11:00:27.064Z,5.00
2023-02-18T11:03:13.331Z,5.20
2023-02-18T11:05:40.952Z,5.10
2023-02-18T11:08:28.814Z,5.10
2023-02-18T11:10:57.283Z,5.00
2023-02-18T11:13:32.888Z,5.20
2023-02-18T11:16:04.276Z,5.20
2023-02-18T11:18:48.101Z,5.40
2023-02-18T11:21:24.463Z,5.30
2023-02-18T11:23:54.012Z,5.20
2023-02-18T11:26:33.989Z,5.30
2023-02-18T11:29:20.638Z,5.40
2023-02-18T11:31:51.401Z,5.70
2023-02-18T11:34:22.557Z,5.90
2023-02-18T11:36:51.295Z,5.90
2023-02-18T11:39:27.828Z,5.90
2023-02-18T11:41:57.524Z,6.00
2023-02-18T11:44:36.638Z,6.20
2023-02-18T11:47:13.292Z,6.40
2023-02-18T11:49:58.649Z,6.60
2023-02-18T11:52:47.750Z,6.80
2023-02-18T11:55:22.671Z,6.90
2023-02-18T11:58:02.616Z,7.00
2023-02-18T12:00:49.370Z,7.20
2023-02-18T12:03:35.323Z,7.30
2023-02-18T12:06:11.651Z,7.40
2023-02-18T12:09:17.376Z,7.60
2023-02-18T12:11:51.105Z,7.40
2023-02-18T12:14:21.048Z,7.70
2023-02-18T12:17:07.268Z,7.40
2023-02-18T12:19:47.260Z,7.00
2023-02-18T12:22:42.915Z,7.00
2023-02-18T12:25:32.335Z,6.80
2023-02-18T12:28:30.538Z,6.80
2023-02-18T12:31:06.639Z,7.10
2023-02-18T12:33:37.350Z,7.20
2023-02-18T12:36:13.924Z,7.10
2023-02-18T12:38:55.941Z,6.80
2023-02-18T12:41:45.262Z,6.70
2023-02-18T12:44:31.686Z,6.90
2023-02-18T12:47:14.150Z,7.10
2023-02-18T12:50:01.314Z,7.20
2023-02-18T12:53:06.364Z,7.40
2023-02-18T12:55:33.921Z,7.30
2023-02-18T12:58:09.846Z,7.50
2023-02-18T13:00:37.198Z,7.70
2023-02-18T13:03:05.153Z,7.70
2023-02-18T13:05:53.948Z,8.00
2023-02-18T13:08:47.750Z,7.90
2023-02-18T13:11:18.111Z,7.80
2023-02-18T13:14:00.802Z,8.00
2023-02-18T13:16:29.451Z,8.30
2023-02-18T13:19:20.736Z,8.20
2023-02-18T13:21:54.449Z,8.40
2023-02-18T13:24:28.046Z,8.40
2023-02-18T13:27:06.413Z,8.30
2023-02-18T13:30:06.830Z,8.40
2023-02-18T13:32:40.780Z,8.10
2023-02-18T13:35:17.179Z,7.90
2023-02-18T13:38:19.824Z,8.00
2023-02-18T13:40:47.405Z,8.00
2023-02-18T13:43:30.058Z,8.00
2023-02-18T13:46:07.928Z,8.00
2023-02-18T13:48:47.409Z,8.00
2023-02-18T13:51:35.277Z,8.00
2023-02-18T13:54:14.172Z,8.00
2023-02-18T13:56:45.586Z,7.80
2023-02-18T13:59:26.846Z,7.80
2023-02-18T14:01:54.584Z,7.60
2023-02-18T14:04:36.611Z,7.50
2023-02-18T14:07:26.544Z,7.50
2023-02-18T14:09:57.217Z,7.50
2023-02-18T14:12:37.763Z,7.50
2023-02-18T14:15:20.562Z,7.50
2023-02-18T14:18:07.997Z,7.30
2023-02-18T14:20:38.350Z,7.40
2023-02-18T14:23:37.859Z,7.40
2023-02-18T14:26:07.402Z,7.30
2023-02-18T14:28:34.793Z,7.30
2023-02-18T14:31:22.204Z,7.20
2023-02-18T14:33:59.711Z,7.20
2023-02-18T14:36:45.840Z,7.20
2023-02-18T14:39:32.982Z,7.10
2023-02-18T14:42:38.221Z,7.00
2023-02-18T14:45:14.328Z,7.00
2023-02-18T14:47:47.875Z,6.90
2023-02-18T14:50:20.634Z,6.90
2023-02-18T14:52:54.418Z,6.90
2023-02-18T14:55:32.373Z,6.90
2023-02-18T14:58:08.506Z,6.90
2023-02-18T15:00:41.401Z,6.90
2023-02-18T15:03:15.711Z,6.70
2023-02-18T15:05:44.427Z,6.80
2023-02-18T15:08:24.196Z,6.70
2023-02-18T15:10:51.703Z,6.70
2023-02-18T15:13:27.011Z,6.70
2023-02-18T15:15:59.189Z,6.70
2023-02-18T15:18:43.422Z,6.70
2023-02-18T15:21:40.926Z,6.80
2023-02-18T15:24:20.363Z,6.80
2023-02-18T15:26:51.902Z,6.90
2023-02-18T15:29:31.857Z,6.70
2023-02-18T15:32:00.835Z,6.80
2023-02-18T15:34:38.865Z,6.80
2023-02-18T15:37:08.534Z,6.80
2023-02-18T15:39:38.677Z,6.80
2023-02-18T15:42:17.248Z,6.80
2023-02-18T15:44:51.544Z,6.80
2023-02-18T15:47:20.206Z,6.60
2023-02-18T15:49:54.450Z,6.70
2023-02-18T15:52:31.261Z,6.70
2023-02-18T15:55:11.895Z,6.60
2023-02-18T15:57:42.433Z,6.50
2023-02-18T16:00:28.658Z,6.60
2023-02-18T16:03:09.467Z,6.50
2023-02-18T16:05:39.000Z,6.50
2023-02-18T16:08:14.342Z,6.60
2023-02-18T16:10:47.446Z,6.50
2023-02-18T16:13:17.469Z,6.50
2023-02-18T16:15:48.311Z,6.40
2023-02-18T16:18:42.749Z,6.40
2023-02-18T16:21:19.119Z,6.30
2023-02-18T16:23:58.065Z,6.30
2023-02-18T16:26:41.122Z,6.30
2023-02-18T16:29:25.828Z,6.20
2023-02-18T16:31:53.498Z,6.20
2023-02-18T16:34:21.695Z,6.20
2023-02-18T16:37:07.710Z,6.30
2023-02-18T16:39:35.987Z,6.30
2023-02-18T16:42:05.745Z,6.20
2023-02-18T16:44:33.837Z,6.30
2023-02-18T16:47:01.508Z,6.20
2023-02-18T16:49:30.012Z,6.10
2023-02-18T16:52:07.927Z,6.20
2023-02-18T16:54:35.517Z,6.20
2023-02-18T16:57:02.970Z,6.10
2023-02-18T16:59:30.604Z,6.10
2023-02-18T17:01:58.122Z,6.10
2023-02-18T17:04:25.672Z,6.10
2023-02-18T17:06:53.222Z,6.10
2023-02-18T17:09:23.076Z,6.10
2023-02-18T17:11:52.836Z,6.10
2023-02-18T17:14:22.056Z,6.00
2023-02-18T17:16:52.561Z,6.10
2023-02-18T17:19:20.648Z,6.00
2023-02-18T17:21:48.970Z,6.00
2023-02-18T17:24:18.563Z,6.00
2023-02-18T17:26:46.075Z,6.10
2023-02-18T17:29:14.000Z,6.10
2023-02-18T17:31:47.546Z,6.10
2023-02-18T17:34:32.581Z,6.10
2023-02-18T17:37:00.168Z,6.00
2023-02-18T17:39:28.523Z,6.00
2023-02-18T17:41:56.017Z,5.90
2023-02-18T17:44:24.713Z,5.90
2023-02-18T17:46:52.552Z,6.00
2023-02-18T17:49:20.830Z,6.10
2023-02-18T17:51:48.669Z,6.00
2023-02-18T17:54:19.378Z,6.10
2023-02-18T17:56:47.157Z,6.10
2023-02-18T17:59:14.660Z,6.10
2023-02-18T18:01:43.315Z,6.10
2023-02-18T18:04:16.516Z,6.20
2023-02-18T18:06:45.746Z,6.10
2023-02-18T18:09:13.310Z,6.10
2023-02-18T18:11:41.000Z,6.10
2023-02-18T18:14:13.207Z,6.10
2023-02-18T18:16:40.721Z,6.10
2023-02-18T18:19:08.271Z,6.00
2023-02-18T18:21:36.817Z,5.90
2023-02-18T18:24:04.657Z,5.90
2023-02-18T18:26:32.289Z,5.90
2023-02-18T18:28:59.774Z,6.00
2023-02-18T18:31:27.571Z,6.00
2023-02-18T18:33:55.246Z,6.00
2023-02-18T18:36:24.392Z,6.00
2023-02-18T18:38:52.620Z,6.00
2023-02-18T18:41:22.348Z,6.00
2023-02-18T18:43:50.865Z,6.00
2023-02-18T18:46:18.682Z,5.90
2023-02-18T18:48:46.474Z,5.90
2023-02-18T18:51:19.726Z,5.90
2023-02-18T18:53:47.498Z,5.90
2023-02-18T18:56:14.908Z,5.90
2023-02-18T18:58:42.485Z,5.90
2023-02-18T19:01:27.351Z,5.90
2023-02-18T19:03:55.310Z,6.00
2023-02-18T19:06:22.836Z,5.90
2023-02-18T19:08:50.332Z,5.80
2023-02-18T19:11:17.727Z,6.00
2023-02-18T19:13:45.947Z,5.90
2023-02-18T19:16:25.290Z,5.90
2023-02-18T19:18:54.294Z,5.90
2023-02-18T19:21:21.714Z,6.00
2023-02-18T19:23:49.246Z,6.10
2023-02-18T19:26:17.169Z,6.10
2023-02-18T19:28:45.433Z,5.90
2023-02-18T19:31:13.449Z,5.90
2023-02-18T19:33:41.553Z,5.90
2023-02-18T19:36:10.893Z,5.90
2023-02-18T19:38:39.014Z,6.00
2023-02-18T19:41:12.575Z,5.90
2023-02-18T19:43:41.396Z,5.80
2023-02-18T19:46:13.545Z,5.80
2023-02-18T19:48:42.260Z,5.90
2023-02-18T19:51:10.264Z,5.90
2023-02-18T19:53:38.180Z,5.80
2023-02-18T19:56:09.312Z,5.80
2023-02-18T19:58:40.100Z,5.90
2023-02-18T20:01:15.383Z,5.80
2023-02-18T20:03:43.219Z,5.90
2023-02-18T20:06:21.015Z,5.90
2023-02-18T20:08:48.724Z,5.80
2023-02-18T20:11:16.293Z,5.90
2023-02-18T20:13:44.259Z,5.90
2023-02-18T20:16:12.253Z,5.90
2023-02-18T20:18:41.024Z,5.90
2023-02-18T20:21:12.298Z,6.10
2023-02-18T20:23:40.427Z,6.00
2023-02-18T20:26:13.000Z,5.90
2023-02-18T20:28:41.081Z,5.90
2023-02-18T20:31:11.596Z,5.90
2023-02-18T20:33:39.681Z,5.80
2023-02-18T20:36:08.592Z,5.80
2023-02-18T20:38:36.898Z,5.80
2023-02-18T20:41:05.630Z,5.80
2023-02-18T20:43:33.450Z,5.90
2023-02-18T20:46:05.361Z,5.90
2023-02-18T20:48:36.434Z,5.90
2023-02-18T20:51:05.768Z,5.80
2023-02-18T20:53:34.734Z,5.70
2023-02-18T20:56:02.674Z,5.70
2023-02-18T20:58:30.694Z,5.80
2023-02-18T21:01:00.388Z,5.90
2023-02-18T21:03:28.601Z,5.80
2023-02-18T21:06:09.934Z,5.70
2023-02-18T21:08:40.475Z,5.80
2023-02-18T21:11:11.431Z,5.80
2023-02-18T21:13:39.445Z,5.70
2023-02-18T21:16:08.251Z,5.70
2023-02-18T21:18:37.289Z,5.60
2023-02-18T21:21:07.031Z,5.60
2023-02-18T21:23:38.599Z,5.60
2023-02-18T21:26:15.631Z,5.60
2023-02-18T21:28:46.307Z,5.50
2023-02-18T21:31:16.804Z,5.50
2023-02-18T21:33:44.465Z,5.40
2023-02-18T21:36:14.075Z,5.40
2023-02-18T21:38:44.641Z,5.40
2023-02-18T21:41:12.927Z,5.50
2023-02-18T21:43:40.417Z,5.50
2023-02-18T21:46:14.623Z,5.40
2023-02-18T21:49:00.577Z,5.40
2023-02-18T21:51:52.141Z,5.40
2023-02-18T21:54:22.556Z,5.40
2023-02-18T21:56:51.241Z,5.50
2023-02-18T21:59:19.965Z,5.40
2023-02-18T22:01:48.091Z,5.30
2023-02-18T22:04:15.959Z,5.40
2023-02-18T22:06:43.836Z,5.30
2023-02-18T22:09:12.021Z,5.30
2023-02-18T22:11:42.103Z,5.30
2023-02-18T22:14:11.401Z,5.30
2023-02-18T22:16:39.361Z,5.30
2023-02-18T22:19:07.651Z,5.20
2023-02-18T22:21:35.244Z,5.20
2023-02-18T22:24:04.814Z,5.20
2023-02-18T22:26:32.492Z,5.30
2023-02-18T22:29:00.397Z,5.30
2023-02-18T22:31:29.592Z,5.20
2023-02-18T22:33:58.225Z,5.20
2023-02-18T22:36:27.160Z,5.20
2023-02-18T22:38:54.909Z,5.00
2023-02-18T22:41:24.913Z,5.10
2023-02-18T22:44:01.187Z,5.10
2023-02-18T22:46:30.086Z,5.00
2023-02-18T22:48:58.484Z,5.10
2023-02-18T22:51:28.900Z,4.90
2023-02-18T22:53:58.354Z,4.90
2023-02-18T22:56:28.269Z,4.80
2023-02-18T22:58:56.981Z,4.90
2023-02-18T23:01:42.373Z,4.80
2023-02-18T23:04:12.324Z,4.70
2023-02-18T23:06:42.064Z,4.70
2023-02-18T23:09:13.557Z,5.00
2023-02-18T23:11:41.182Z,4.60
2023-02-18T23:14:18.187Z,4.60
2023-02-18T23:17:12.899Z,4.70
2023-02-18T23:19:44.656Z,4.50
2023-02-18T23:22:14.673Z,4.60
2023-02-18T23:24:44.856Z,4.40
2023-02-18T23:27:14.506Z,4.40
2023-02-18T23:29:42.378Z,4.40
2023-02-18T23:32:10.597Z,4.40
2023-02-18T23:34:38.733Z,4.50
2023-02-18T23:37:06.235Z,4.40
2023-02-18T23:39:34.344Z,4.40
2023-02-18T23:42:01.900Z,4.30
2023-02-18T23:44:29.560Z,4.20
2023-02-18T23:46:57.136Z,4.30
2023-02-18T23:49:26.586Z,4.20
2023-02-18T23:51:56.098Z,4.30
2023-02-18T23:54:24.390Z,4.20
2023-02-18T23:56:52.027Z,4.10
2023-02-18T23:59:19.495Z,4.10
